Windhoek, Namibia
Current Conditions -  °F | °C
As of 2:00 PM on Thursday 30 Oct 2014 (Local Time) from FYWE Reporting Station
Broken Clouds Broken Clouds  
Wind Chill: 31°   Ceiling: 5500
Heat Index: 31°   Visibility: 6mi
Dew Point: -3°   Wind: 7mph
Humidity: 11%   Direction: 330°NNW
Pressure: 30.09"   Gusts: NA
Location:  22.56°S, 17.09°E
Report Text: FYWE 301300Z 33006KT 9999 FEW050CB BKN055TCU 31/M03 Q1019
Loading
Personal Weather Stations






























Interactive Weather Map
Tropical Storm Tracking
New forecast layout! Learn more

10-Day Weather Forecast

Advertisements
Track Severe Weather on mobile